createdAt,value
2019-01-27T00:02:22.023Z,99218.56
2019-01-27T00:04:57.591Z,99218.00
2019-01-27T00:07:31.936Z,99213.67
2019-01-27T00:10:09.032Z,99209.50
2019-01-27T00:12:43.245Z,99207.34
2019-01-27T00:15:19.166Z,99204.59
2019-01-27T00:17:56.087Z,99196.44
2019-01-27T00:20:30.703Z,99193.05
2019-01-27T00:23:06.133Z,99187.05
2019-01-27T00:25:41.358Z,99182.52
2019-01-27T00:28:16.100Z,99174.11
2019-01-27T00:30:50.406Z,99176.42
2019-01-27T00:33:24.762Z,99173.61
2019-01-27T00:35:58.616Z,99165.08
2019-01-27T00:38:32.222Z,99168.75
2019-01-27T00:41:06.275Z,99160.58
2019-01-27T00:43:41.744Z,99157.89
2019-01-27T00:46:21.550Z,99159.88
2019-01-27T00:48:56.014Z,99162.06
2019-01-27T00:51:31.328Z,99162.46
2019-01-27T00:54:06.108Z,99159.72
2019-01-27T00:56:40.746Z,99156.09
2019-01-27T00:59:14.814Z,99152.55
2019-01-27T01:01:49.897Z,99141.83
2019-01-27T01:04:24.628Z,99141.89
2019-01-27T01:06:58.932Z,99135.97
2019-01-27T01:09:33.490Z,99131.70
2019-01-27T01:12:08.407Z,99135.44
2019-01-27T01:14:42.504Z,99141.47
2019-01-27T01:17:18.185Z,99135.10
2019-01-27T01:19:54.842Z,99126.16
2019-01-27T01:22:29.089Z,99124.84
2019-01-27T01:25:03.357Z,99124.02
2019-01-27T01:27:37.431Z,99132.05
2019-01-27T01:30:14.390Z,99128.79
2019-01-27T01:32:49.049Z,99117.89
2019-01-27T01:35:23.396Z,99122.42
2019-01-27T01:37:58.597Z,99120.77
2019-01-27T01:40:32.496Z,99113.76
2019-01-27T01:43:05.805Z,99102.85
2019-01-27T01:45:39.568Z,99096.16
2019-01-27T01:48:13.153Z,99090.06
2019-01-27T01:50:47.739Z,99081.77
2019-01-27T01:53:22.079Z,99090.77
2019-01-27T01:55:57.449Z,99081.13
2019-01-27T01:58:31.610Z,99082.16
2019-01-27T02:01:05.809Z,99085.37
2019-01-27T02:03:59.071Z,99075.02
2019-01-27T02:06:32.642Z,99071.00
2019-01-27T02:09:07.883Z,99056.25
2019-01-27T02:11:41.096Z,99064.26
2019-01-27T02:14:14.997Z,99063.47
2019-01-27T02:16:49.295Z,99062.23
2019-01-27T02:19:22.959Z,99069.09
2019-01-27T02:21:56.358Z,99071.93
2019-01-27T02:24:30.771Z,99057.47
2019-01-27T02:27:04.968Z,99047.99
2019-01-27T02:29:38.543Z,99057.31
2019-01-27T02:32:13.517Z,99045.53
2019-01-27T02:34:49.868Z,99036.11
2019-01-27T02:37:23.311Z,99031.48
2019-01-27T02:39:56.674Z,99026.80
2019-01-27T02:42:30.782Z,99021.71
2019-01-27T02:45:08.103Z,99006.62
2019-01-27T02:47:42.210Z,99004.64
2019-01-27T02:50:18.811Z,99007.02
2019-01-27T02:52:53.293Z,98996.26
2019-01-27T02:55:29.369Z,98990.36
2019-01-27T02:58:04.247Z,98991.08
2019-01-27T03:00:45.035Z,98980.66
2019-01-27T03:03:21.203Z,98971.78
2019-01-27T03:05:55.899Z,98975.45
2019-01-27T03:08:30.933Z,98967.28
2019-01-27T03:11:07.413Z,98962.27
2019-01-27T03:13:41.984Z,98968.43
2019-01-27T03:16:18.849Z,98952.72
2019-01-27T03:18:54.950Z,98951.95
2019-01-27T03:21:34.435Z,98954.80
2019-01-27T03:24:09.964Z,98950.95
2019-01-27T03:26:44.338Z,98941.98
2019-01-27T03:29:18.215Z,98927.66
2019-01-27T03:31:55.610Z,98931.98
2019-01-27T03:34:29.621Z,98932.67
2019-01-27T03:37:03.649Z,98929.83
2019-01-27T03:39:38.141Z,98920.42
2019-01-27T03:42:12.990Z,98915.09
2019-01-27T03:44:47.745Z,98906.79
2019-01-27T03:47:21.950Z,98894.42
2019-01-27T03:49:55.451Z,98901.48
2019-01-27T03:52:29.371Z,98886.95
2019-01-27T03:55:03.532Z,98873.09
2019-01-27T03:57:37.269Z,98883.11
2019-01-27T04:00:13.241Z,98872.27
2019-01-27T04:02:46.793Z,98867.03
2019-01-27T04:05:22.907Z,98858.65
2019-01-27T04:07:56.591Z,98849.74
2019-01-27T04:10:30.708Z,98840.81
2019-01-27T04:13:04.418Z,98842.83
2019-01-27T04:15:38.024Z,98825.91
2019-01-27T04:18:11.717Z,98812.37
2019-01-27T04:20:46.426Z,98812.51
2019-01-27T04:23:19.789Z,98812.73
2019-01-27T04:25:53.123Z,98800.59
2019-01-27T04:28:26.527Z,98811.17
2019-01-27T04:31:00.024Z,98796.45
2019-01-27T04:33:33.321Z,98798.19
2019-01-27T04:36:06.817Z,98789.22
2019-01-27T04:38:44.612Z,98786.30
2019-01-27T04:41:19.458Z,98770.29
2019-01-27T04:43:53.334Z,98754.66
2019-01-27T04:46:26.838Z,98748.13
2019-01-27T04:49:00.168Z,98744.95
2019-01-27T04:51:34.466Z,98735.59
2019-01-27T04:54:09.540Z,98713.59
2019-01-27T04:56:43.105Z,98709.91
2019-01-27T04:59:16.707Z,98699.80
2019-01-27T05:01:49.902Z,98708.89
2019-01-27T05:04:23.355Z,98685.16
2019-01-27T05:06:58.789Z,98690.80
2019-01-27T05:09:32.355Z,98707.19
2019-01-27T05:12:06.109Z,98701.45
2019-01-27T05:14:41.210Z,98712.94
2019-01-27T05:17:14.990Z,98707.13
2019-01-27T05:19:50.541Z,98695.05
2019-01-27T05:22:24.906Z,98690.04
2019-01-27T05:25:00.317Z,98682.77
2019-01-27T05:27:34.288Z,98668.63
2019-01-27T05:30:14.010Z,98664.31
2019-01-27T05:32:49.699Z,98656.64
2019-01-27T05:35:23.310Z,98642.13
2019-01-27T05:37:57.756Z,98648.98
2019-01-27T05:40:31.309Z,98650.71
2019-01-27T05:43:05.193Z,98630.85
2019-01-27T05:45:38.970Z,98630.85
2019-01-27T05:48:12.595Z,98626.33
2019-01-27T05:50:46.395Z,98622.90
2019-01-27T05:53:20.471Z,98616.81
2019-01-27T05:55:54.629Z,98614.16
2019-01-27T05:58:28.303Z,98615.52
2019-01-27T06:01:06.317Z,98612.92
2019-01-27T06:03:40.974Z,98605.88
2019-01-27T06:06:15.688Z,98600.16
2019-01-27T06:08:49.398Z,98601.02
2019-01-27T06:11:23.206Z,98605.94
2019-01-27T06:13:57.216Z,98609.53
2019-01-27T06:16:33.039Z,98604.58
2019-01-27T06:19:07.223Z,98598.90
2019-01-27T06:21:41.040Z,98587.84
2019-01-27T06:24:16.120Z,98593.98
2019-01-27T06:26:50.059Z,98588.01
2019-01-27T06:29:24.154Z,98586.38
2019-01-27T06:31:59.931Z,98582.61
2019-01-27T06:34:35.348Z,98586.42
2019-01-27T06:37:09.396Z,98587.03
2019-01-27T06:39:43.842Z,98588.14
2019-01-27T06:42:17.493Z,98577.50
2019-01-27T06:44:51.393Z,98567.77
2019-01-27T06:47:25.506Z,98568.55
2019-01-27T06:49:59.688Z,98568.45
2019-01-27T06:52:32.984Z,98553.91
2019-01-27T06:55:10.562Z,98570.86
2019-01-27T06:57:44.945Z,98558.52
2019-01-27T07:00:26.847Z,98554.95
2019-01-27T07:03:00.930Z,98546.24
2019-01-27T07:05:36.409Z,98543.45
2019-01-27T07:08:13.396Z,98549.67
2019-01-27T07:10:47.191Z,98531.60
2019-01-27T07:13:20.945Z,98550.48
2019-01-27T07:15:54.879Z,98543.41
2019-01-27T07:18:28.650Z,98541.73
2019-01-27T07:21:02.980Z,98540.47
2019-01-27T07:23:37.950Z,98536.47
2019-01-27T07:26:12.964Z,98537.81
2019-01-27T07:28:46.424Z,98541.62
2019-01-27T07:31:21.506Z,98534.98
2019-01-27T07:33:56.195Z,98531.38
2019-01-27T07:36:30.173Z,98525.25
2019-01-27T07:39:03.726Z,98518.66
2019-01-27T07:41:41.006Z,98509.70
2019-01-27T07:44:14.926Z,98516.30
2019-01-27T07:46:48.473Z,98520.11
2019-01-27T07:49:24.860Z,98513.16
2019-01-27T07:51:58.709Z,98514.13
2019-01-27T07:54:33.476Z,98515.78
2019-01-27T07:57:09.463Z,98512.55
2019-01-27T07:59:44.710Z,98504.75
2019-01-27T08:02:19.345Z,98504.22
2019-01-27T08:04:55.299Z,98504.73
2019-01-27T08:07:29.626Z,98503.00
2019-01-27T08:10:03.414Z,98491.11
2019-01-27T08:12:37.273Z,98490.88
2019-01-27T08:15:12.947Z,98502.38
2019-01-27T08:17:46.849Z,98495.69
2019-01-27T08:20:39.735Z,98488.90
2019-01-27T08:23:15.629Z,98499.14
2019-01-27T08:25:49.518Z,98494.19
2019-01-27T08:28:23.627Z,98491.53
2019-01-27T08:30:58.350Z,98489.80
2019-01-27T08:33:33.799Z,98491.63
2019-01-27T08:36:08.504Z,98491.05
2019-01-27T08:38:42.859Z,98491.67
2019-01-27T08:41:18.371Z,98492.20
2019-01-27T08:43:53.077Z,98486.23
2019-01-27T08:46:31.229Z,98480.31
2019-01-27T08:49:06.045Z,98481.90
2019-01-27T08:51:43.260Z,98484.13
2019-01-27T08:54:17.851Z,98475.73
2019-01-27T08:56:55.620Z,98484.87
2019-01-27T08:59:31.082Z,98477.80
2019-01-27T09:02:06.124Z,98477.16
2019-01-27T09:04:42.716Z,98470.16
2019-01-27T09:07:19.109Z,98472.83
2019-01-27T09:09:53.447Z,98478.46
2019-01-27T09:12:30.122Z,98478.95
2019-01-27T09:15:04.918Z,98476.01
2019-01-27T09:17:39.157Z,98471.73
2019-01-27T09:20:14.286Z,98471.09
2019-01-27T09:22:48.981Z,98467.91
2019-01-27T09:25:25.774Z,98461.28
2019-01-27T09:28:01.544Z,98465.93
2019-01-27T09:30:37.811Z,98460.25
2019-01-27T09:33:15.731Z,98473.08
2019-01-27T09:35:50.392Z,98467.16
2019-01-27T09:38:35.143Z,98464.42
2019-01-27T09:41:12.299Z,98460.67
2019-01-27T09:43:47.076Z,98458.49
2019-01-27T09:46:22.446Z,98472.55
2019-01-27T09:48:58.368Z,98464.89
2019-01-27T09:51:34.216Z,98477.64
2019-01-27T09:54:12.157Z,98472.48
2019-01-27T09:56:51.906Z,98462.44
2019-01-27T09:59:26.930Z,98468.50
2019-01-27T10:02:02.423Z,98469.37
2019-01-27T10:04:42.487Z,98460.87
2019-01-27T10:07:17.372Z,98462.51
2019-01-27T10:09:52.508Z,98466.22
2019-01-27T10:12:27.211Z,98455.91
2019-01-27T10:15:02.522Z,98450.22
2019-01-27T10:17:37.299Z,98455.16
2019-01-27T10:20:12.282Z,98453.02
2019-01-27T10:22:50.661Z,98449.69
2019-01-27T10:25:25.916Z,98443.50
2019-01-27T10:28:06.086Z,98467.28
2019-01-27T10:30:40.751Z,98478.88
2019-01-27T10:33:16.851Z,98504.56
2019-01-27T10:35:54.609Z,98506.20
2019-01-27T10:38:29.166Z,98526.23
2019-01-27T10:41:04.454Z,98523.15
2019-01-27T10:43:49.870Z,98535.73
2019-01-27T10:46:29.500Z,98536.55
2019-01-27T10:49:04.770Z,98545.87
2019-01-27T10:51:39.472Z,98540.19
2019-01-27T10:54:16.504Z,98559.16
2019-01-27T10:56:54.198Z,98552.88
2019-01-27T10:59:30.086Z,98555.91
2019-01-27T11:02:08.639Z,98556.84
2019-01-27T11:04:45.044Z,98557.89
2019-01-27T11:07:20.828Z,98565.08
2019-01-27T11:09:57.636Z,98570.15
2019-01-27T11:12:34.829Z,98574.05
2019-01-27T11:15:11.357Z,98577.89
2019-01-27T11:17:48.551Z,98588.78
2019-01-27T11:20:24.379Z,98586.12
2019-01-27T11:22:59.831Z,98585.86
2019-01-27T11:25:35.333Z,98583.84
2019-01-27T11:28:10.232Z,98581.33
2019-01-27T11:30:45.459Z,98602.00
2019-01-27T11:33:21.361Z,98600.69
2019-01-27T11:35:59.035Z,98607.11
2019-01-27T11:38:33.789Z,98609.77
2019-01-27T11:41:08.218Z,98619.94
2019-01-27T11:43:43.001Z,98618.73
2019-01-27T11:46:17.145Z,98632.09
2019-01-27T11:48:52.381Z,98636.67
2019-01-27T11:51:26.281Z,98642.84
2019-01-27T11:54:01.027Z,98645.88
2019-01-27T11:56:37.692Z,98657.98
2019-01-27T11:59:13.313Z,98669.48
2019-01-27T12:01:49.468Z,98663.41
2019-01-27T12:04:24.776Z,98668.08
2019-01-27T12:07:00.893Z,98671.50
2019-01-27T12:09:35.690Z,98675.34
2019-01-27T12:12:11.763Z,98678.15
2019-01-27T12:14:46.277Z,98684.02
2019-01-27T12:17:26.225Z,98693.19
2019-01-27T12:20:02.258Z,98705.94
2019-01-27T12:22:37.834Z,98711.06
2019-01-27T12:25:18.324Z,98710.50
2019-01-27T12:27:52.987Z,98707.88
2019-01-27T12:30:27.585Z,98713.41
2019-01-27T12:33:06.238Z,98714.37
2019-01-27T12:35:40.863Z,98712.37
2019-01-27T12:38:34.327Z,98714.15
2019-01-27T12:41:11.019Z,98719.65
2019-01-27T12:43:46.505Z,98716.69
2019-01-27T12:46:20.842Z,98723.33
2019-01-27T12:48:55.675Z,98725.17
2019-01-27T12:51:32.255Z,98719.52
2019-01-27T12:54:08.333Z,98719.08
2019-01-27T12:56:42.683Z,98714.00
2019-01-27T12:59:19.299Z,98724.43
2019-01-27T13:01:55.740Z,98731.13
2019-01-27T13:04:30.249Z,98734.30
2019-01-27T13:07:06.296Z,98734.39
2019-01-27T13:09:43.898Z,98739.88
2019-01-27T13:12:20.440Z,98741.13
2019-01-27T13:14:55.220Z,98735.97
2019-01-27T13:17:32.766Z,98742.36
2019-01-27T13:20:10.989Z,98741.34
2019-01-27T13:22:46.257Z,98743.30
2019-01-27T13:25:23.740Z,98748.96
2019-01-27T13:27:58.678Z,98750.16
2019-01-27T13:30:33.485Z,98763.63
2019-01-27T13:33:08.744Z,98749.83
2019-01-27T13:35:45.387Z,98756.08
2019-01-27T13:38:20.597Z,98766.92
2019-01-27T13:40:58.324Z,98763.89
2019-01-27T13:43:36.023Z,98766.73
2019-01-27T13:46:11.952Z,98770.95
2019-01-27T13:48:54.511Z,98770.73
2019-01-27T13:51:29.435Z,98779.44
2019-01-27T13:54:04.404Z,98776.41
2019-01-27T13:56:39.322Z,98779.90
2019-01-27T13:59:18.440Z,98784.17
2019-01-27T14:01:54.851Z,98782.28
2019-01-27T14:04:48.601Z,98783.21
2019-01-27T14:07:25.275Z,98781.87
2019-01-27T14:10:04.879Z,98765.34
2019-01-27T14:12:39.583Z,98781.87
2019-01-27T14:15:19.147Z,98778.54
2019-01-27T14:17:54.514Z,98775.28
2019-01-27T14:20:29.291Z,98774.89
2019-01-27T14:23:03.525Z,98779.08
2019-01-27T14:25:38.527Z,98767.80
2019-01-27T14:28:13.023Z,98773.50
2019-01-27T14:30:48.390Z,98768.55
2019-01-27T14:33:22.486Z,98766.66
2019-01-27T14:35:57.460Z,98768.73
2019-01-27T14:38:33.319Z,98782.38
2019-01-27T14:41:12.043Z,98778.66
2019-01-27T14:43:46.128Z,98785.56
2019-01-27T14:46:20.700Z,98794.38
2019-01-27T14:48:54.367Z,98790.25
2019-01-27T14:51:28.975Z,98782.15
2019-01-27T14:54:03.897Z,98773.41
2019-01-27T14:56:39.212Z,98779.95
2019-01-27T14:59:14.433Z,98791.71
2019-01-27T15:01:48.903Z,98797.95
2019-01-27T15:04:23.527Z,98792.83
2019-01-27T15:06:58.682Z,98797.97
2019-01-27T15:09:33.569Z,98792.29
2019-01-27T15:12:07.058Z,98791.79
2019-01-27T15:14:41.830Z,98792.31
2019-01-27T15:17:15.691Z,98789.05
2019-01-27T15:19:49.038Z,98790.48
2019-01-27T15:22:22.366Z,98789.97
2019-01-27T15:24:55.457Z,98793.47
2019-01-27T15:27:28.652Z,98793.78
2019-01-27T15:30:02.597Z,98790.41
2019-01-27T15:32:37.281Z,98793.98
2019-01-27T15:35:11.991Z,98798.30
2019-01-27T15:37:45.411Z,98800.02
2019-01-27T15:40:19.702Z,98797.27
2019-01-27T15:42:53.121Z,98794.30
2019-01-27T15:45:29.802Z,98791.31
2019-01-27T15:48:03.421Z,98792.44
2019-01-27T15:50:40.325Z,98795.63
2019-01-27T15:53:13.669Z,98783.70
2019-01-27T15:55:47.051Z,98796.84
2019-01-27T15:58:20.670Z,98798.41
2019-01-27T16:00:54.020Z,98802.80
2019-01-27T16:03:27.216Z,98802.81
2019-01-27T16:06:01.624Z,98801.16
2019-01-27T16:08:34.948Z,98795.11
2019-01-27T16:11:08.265Z,98800.85
2019-01-27T16:13:42.355Z,98805.05
2019-01-27T16:16:15.487Z,98809.84
2019-01-27T16:18:48.867Z,98810.09
2019-01-27T16:21:23.355Z,98811.12
2019-01-27T16:23:56.371Z,98809.13
2019-01-27T16:26:30.842Z,98816.12
2019-01-27T16:29:04.529Z,98822.07
2019-01-27T16:31:38.154Z,98816.09
2019-01-27T16:34:11.380Z,98814.56
2019-01-27T16:36:44.792Z,98817.33
2019-01-27T16:39:18.987Z,98817.58
2019-01-27T16:41:52.463Z,98812.76
2019-01-27T16:44:25.917Z,98812.55
2019-01-27T16:46:59.086Z,98813.95
2019-01-27T16:49:32.465Z,98820.58
2019-01-27T16:52:06.100Z,98821.34
2019-01-27T16:54:39.678Z,98825.32
2019-01-27T16:57:13.455Z,98828.20
2019-01-27T16:59:46.783Z,98829.53
2019-01-27T17:02:20.774Z,98828.13
2019-01-27T17:04:54.277Z,98832.56
2019-01-27T17:07:27.799Z,98827.49
2019-01-27T17:10:01.007Z,98833.55
2019-01-27T17:12:35.629Z,98835.77
2019-01-27T17:15:11.703Z,98833.27
2019-01-27T17:17:45.611Z,98850.27
2019-01-27T17:20:26.321Z,98838.18
2019-01-27T17:23:00.651Z,98849.53
2019-01-27T17:25:33.897Z,98851.34
2019-01-27T17:28:07.181Z,98850.48
2019-01-27T17:30:41.378Z,98855.34
2019-01-27T17:33:14.561Z,98862.93
2019-01-27T17:35:48.933Z,98862.22
2019-01-27T17:38:21.942Z,98865.52
2019-01-27T17:40:55.277Z,98863.94
2019-01-27T17:43:31.218Z,98878.76
2019-01-27T17:46:03.641Z,98875.08
2019-01-27T17:48:37.966Z,98872.24
2019-01-27T17:51:11.321Z,98870.07
2019-01-27T17:53:45.085Z,98874.99
2019-01-27T17:56:18.495Z,98878.34
2019-01-27T17:58:54.422Z,98871.64
2019-01-27T18:01:27.789Z,98886.69
2019-01-27T18:04:01.416Z,98881.14
2019-01-27T18:06:34.889Z,98883.48
2019-01-27T18:09:10.156Z,98884.77
2019-01-27T18:11:44.566Z,98879.86
2019-01-27T18:14:17.772Z,98880.50
2019-01-27T18:16:51.268Z,98888.23
2019-01-27T18:19:25.784Z,98876.46
2019-01-27T18:21:59.425Z,98882.84
2019-01-27T18:24:32.926Z,98889.03
2019-01-27T18:27:06.210Z,98891.62
2019-01-27T18:29:39.871Z,98894.73
2019-01-27T18:32:13.279Z,98893.64
2019-01-27T18:34:46.676Z,98888.91
2019-01-27T18:37:21.265Z,98884.20
2019-01-27T18:39:55.672Z,98884.80
2019-01-27T18:42:29.228Z,98889.61
2019-01-27T18:45:02.935Z,98892.59
2019-01-27T18:47:36.575Z,98885.09
2019-01-27T18:50:12.747Z,98879.32
2019-01-27T18:52:46.270Z,98889.16
2019-01-27T18:55:21.743Z,98891.82
2019-01-27T18:57:54.277Z,98893.80
2019-01-27T19:00:27.613Z,98890.75
2019-01-27T19:03:01.046Z,98895.87
2019-01-27T19:05:34.393Z,98896.42
2019-01-27T19:08:09.420Z,98896.49
2019-01-27T19:10:42.361Z,98899.69
2019-01-27T19:13:15.599Z,98901.08
2019-01-27T19:15:49.461Z,98913.34
2019-01-27T19:18:24.275Z,98912.27
2019-01-27T19:20:57.444Z,98907.59
2019-01-27T19:23:30.621Z,98903.47
2019-01-27T19:26:03.893Z,98906.81
2019-01-27T19:28:38.187Z,98906.31
2019-01-27T19:31:12.722Z,98908.14
2019-01-27T19:33:45.450Z,98913.39
2019-01-27T19:36:18.747Z,98908.25
2019-01-27T19:38:52.216Z,98918.67
2019-01-27T19:41:25.610Z,98918.23
2019-01-27T19:43:58.930Z,98918.13
2019-01-27T19:46:32.569Z,98923.84
2019-01-27T19:49:05.877Z,98925.86
2019-01-27T19:51:39.378Z,98931.57
2019-01-27T19:54:12.911Z,98932.78
2019-01-27T19:56:46.367Z,98930.42
2019-01-27T19:59:19.644Z,98932.61
2019-01-27T20:01:52.945Z,98940.16
2019-01-27T20:04:26.221Z,98949.23
2019-01-27T20:06:59.695Z,98950.36
2019-01-27T20:09:33.600Z,98948.61
2019-01-27T20:12:06.916Z,98963.19
2019-01-27T20:14:40.205Z,98957.19
2019-01-27T20:17:13.602Z,98972.13
2019-01-27T20:19:47.131Z,98978.68
2019-01-27T20:22:20.417Z,98980.30
2019-01-27T20:24:54.940Z,98976.78
2019-01-27T20:27:29.239Z,98982.02
2019-01-27T20:30:02.781Z,98987.16
2019-01-27T20:32:36.135Z,98995.22
2019-01-27T20:35:11.382Z,98987.20
2019-01-27T20:37:44.793Z,98996.60
2019-01-27T20:40:17.902Z,99002.19
2019-01-27T20:42:50.983Z,99005.88
2019-01-27T20:45:24.267Z,99000.63
2019-01-27T20:47:59.001Z,99010.06
2019-01-27T20:50:32.170Z,99020.81
2019-01-27T20:53:05.546Z,99024.52
2019-01-27T20:55:38.664Z,99025.00
2019-01-27T20:58:11.838Z,99025.92
2019-01-27T21:00:45.182Z,99029.66
2019-01-27T21:03:18.807Z,99029.76
2019-01-27T21:05:53.480Z,99023.47
2019-01-27T21:08:26.691Z,99031.45
2019-01-27T21:10:59.964Z,99032.47
2019-01-27T21:13:33.929Z,99031.75
2019-01-27T21:16:07.379Z,99033.69
2019-01-27T21:18:40.783Z,99028.09
2019-01-27T21:21:15.610Z,99037.16
2019-01-27T21:23:49.255Z,99038.17
2019-01-27T21:26:22.547Z,99046.25
2019-01-27T21:28:55.964Z,99053.16
2019-01-27T21:31:30.143Z,99055.98
2019-01-27T21:34:04.460Z,99058.41
2019-01-27T21:36:38.484Z,99048.45
2019-01-27T21:39:13.581Z,99053.88
2019-01-27T21:41:47.012Z,99064.23
2019-01-27T21:44:27.687Z,99059.92
2019-01-27T21:46:56.434Z,99063.45
2019-01-27T21:49:30.384Z,99070.74
2019-01-27T21:52:03.699Z,99079.99
2019-01-27T21:54:37.187Z,99075.42
2019-01-27T21:57:10.548Z,99075.42
2019-01-27T21:59:44.098Z,99089.72
2019-01-27T22:02:17.334Z,99081.42
2019-01-27T22:04:50.663Z,99087.44
2019-01-27T22:07:23.949Z,99086.41
2019-01-27T22:09:57.462Z,99086.85
2019-01-27T22:12:31.036Z,99096.56
2019-01-27T22:15:04.422Z,99091.05
2019-01-27T22:17:38.065Z,99100.58
2019-01-27T22:23:10.147Z,99102.53
2019-01-27T22:25:44.053Z,99109.75
2019-01-27T22:28:17.809Z,99118.34
2019-01-27T22:30:51.600Z,99120.41
2019-01-27T22:33:25.060Z,99121.94
2019-01-27T22:35:58.437Z,99129.83
2019-01-27T22:38:31.840Z,99130.89
2019-01-27T22:41:05.462Z,99137.89
2019-01-27T22:43:39.249Z,99145.68
2019-01-27T22:46:13.671Z,99151.71
2019-01-27T22:48:47.877Z,99156.77
2019-01-27T22:51:21.826Z,99161.13
2019-01-27T22:53:57.078Z,99169.92
2019-01-27T22:56:30.465Z,99175.36
2019-01-27T22:59:04.494Z,99182.49
2019-01-27T23:01:38.172Z,99183.19
2019-01-27T23:04:11.473Z,99187.16
2019-01-27T23:06:45.046Z,99195.07
2019-01-27T23:09:18.523Z,99198.86
2019-01-27T23:11:51.646Z,99205.64
2019-01-27T23:14:24.863Z,99215.92
2019-01-27T23:16:59.512Z,99216.75
2019-01-27T23:19:34.505Z,99223.33
2019-01-27T23:22:07.956Z,99231.25
2019-01-27T23:24:41.552Z,99236.94
2019-01-27T23:27:15.122Z,99242.22
2019-01-27T23:29:48.517Z,99239.28
2019-01-27T23:32:21.820Z,99254.06
2019-01-27T23:34:55.387Z,99256.20
2019-01-27T23:37:28.914Z,99269.46
2019-01-27T23:40:02.285Z,99282.67
2019-01-27T23:42:36.622Z,99295.61
2019-01-27T23:45:12.515Z,99298.39
2019-01-27T23:47:46.794Z,99302.88
2019-01-27T23:50:21.125Z,99311.67
2019-01-27T23:52:55.126Z,99316.43
2019-01-27T23:55:29.264Z,99328.09
2019-01-27T23:58:02.791Z,99330.72
